createdAt,value
2022-09-17T00:04:50.571Z,6.70
2022-09-17T00:09:52.818Z,6.60
2022-09-17T00:14:54.950Z,6.10
2022-09-17T00:19:57.248Z,6.33
2022-09-17T00:24:59.384Z,5.60
2022-09-17T00:30:01.744Z,4.93
2022-09-17T00:35:06.031Z,5.63
2022-09-17T00:40:09.089Z,5.10
2022-09-17T00:45:12.362Z,6.33
2022-09-17T00:50:19.920Z,4.73
2022-09-17T00:55:27.304Z,4.30
2022-09-17T01:00:32.892Z,4.37
2022-09-17T01:06:10.457Z,4.47
2022-09-17T01:11:32.401Z,4.17
2022-09-17T01:17:10.273Z,3.80
2022-09-17T01:22:18.427Z,4.27
2022-09-17T01:27:31.922Z,4.63
2022-09-17T01:32:46.225Z,4.33
2022-09-17T01:38:09.088Z,4.17
2022-09-17T01:43:21.994Z,3.50
2022-09-17T01:48:30.864Z,3.97
2022-09-17T01:53:49.145Z,3.33
2022-09-17T01:58:56.859Z,3.70
2022-09-17T02:04:33.965Z,4.20
2022-09-17T02:09:41.933Z,3.37
2022-09-17T02:14:53.985Z,3.37
2022-09-17T02:19:56.472Z,3.97
2022-09-17T02:25:27.612Z,3.00
2022-09-17T02:30:30.253Z,3.70
2022-09-17T02:35:33.516Z,3.13
2022-09-17T02:40:49.022Z,3.57
2022-09-17T02:46:19.485Z,3.40
2022-09-17T02:51:27.840Z,3.93
2022-09-17T02:57:09.023Z,3.10
2022-09-17T03:02:21.150Z,3.77
2022-09-17T03:07:24.047Z,3.87
2022-09-17T03:12:27.070Z,3.17
2022-09-17T03:17:29.905Z,3.20
2022-09-17T03:22:32.657Z,2.90
2022-09-17T03:27:34.976Z,2.87
2022-09-17T03:32:37.159Z,2.80
2022-09-17T03:37:39.415Z,3.27
2022-09-17T03:42:41.598Z,2.87
2022-09-17T03:47:43.810Z,2.60
2022-09-17T03:52:46.054Z,3.10
2022-09-17T03:57:48.255Z,3.70
2022-09-17T04:02:50.615Z,3.10
2022-09-17T04:07:52.952Z,2.90
2022-09-17T04:12:55.098Z,2.57
2022-09-17T04:18:01.000Z,4.27
2022-09-17T04:23:03.121Z,3.67
2022-09-17T04:28:05.356Z,2.50
2022-09-17T04:33:07.595Z,3.27
2022-09-17T04:38:09.996Z,2.83
2022-09-17T04:43:12.590Z,2.57
2022-09-17T04:48:14.992Z,2.60
2022-09-17T04:53:17.341Z,2.70
2022-09-17T04:58:22.502Z,2.70
2022-09-17T05:03:24.829Z,2.83
2022-09-17T05:08:27.124Z,2.87
2022-09-17T05:13:29.351Z,3.10
2022-09-17T05:18:31.860Z,2.80
2022-09-17T05:23:34.015Z,2.43
2022-09-17T05:28:36.821Z,2.50
2022-09-17T05:33:39.000Z,3.57
2022-09-17T05:38:44.928Z,2.70
2022-09-17T05:43:47.254Z,2.47
2022-09-17T05:48:49.504Z,2.80
2022-09-17T05:53:51.689Z,2.50
2022-09-17T05:58:57.472Z,3.10
2022-09-17T06:03:59.656Z,2.40
2022-09-17T06:09:01.851Z,2.50
2022-09-17T06:14:04.303Z,2.17
2022-09-17T06:19:06.882Z,2.57
2022-09-17T06:24:10.733Z,2.40
2022-09-17T06:29:15.469Z,2.37
2022-09-17T06:34:18.244Z,2.63
2022-09-17T06:39:20.517Z,2.30
2022-09-17T06:44:22.656Z,2.50
2022-09-17T06:49:24.849Z,2.23
2022-09-17T06:54:27.090Z,2.33
2022-09-17T06:59:29.351Z,2.40
2022-09-17T07:04:31.535Z,2.23
2022-09-17T07:09:36.847Z,2.17
2022-09-17T07:14:40.385Z,2.93
2022-09-17T07:19:42.577Z,2.53
2022-09-17T07:24:45.040Z,2.10
2022-09-17T07:29:47.263Z,2.70
2022-09-17T07:34:49.726Z,2.03
2022-09-17T07:39:51.973Z,3.03
2022-09-17T07:44:57.514Z,2.67
2022-09-17T07:50:02.076Z,2.10
2022-09-17T07:55:08.573Z,2.10
2022-09-17T08:00:11.537Z,2.40
2022-09-17T08:05:13.924Z,1.97
2022-09-17T08:10:18.037Z,1.77
2022-09-17T08:15:20.376Z,2.40
2022-09-17T08:20:24.402Z,2.30
2022-09-17T08:25:26.942Z,1.70
2022-09-17T08:30:29.143Z,1.93
2022-09-17T08:35:31.247Z,1.83
2022-09-17T08:40:39.903Z,1.90
2022-09-17T08:45:42.333Z,1.77
2022-09-17T08:50:44.483Z,1.63
2022-09-17T08:55:50.488Z,1.67
2022-09-17T09:01:05.520Z,1.50
2022-09-17T09:06:10.850Z,1.87
2022-09-17T09:11:16.763Z,1.43
2022-09-17T09:16:21.546Z,1.87
2022-09-17T09:21:50.692Z,1.30
2022-09-17T09:27:05.282Z,1.83
2022-09-17T09:32:22.587Z,1.07
2022-09-17T09:37:37.283Z,1.53
2022-09-17T09:42:40.178Z,2.23
2022-09-17T09:48:07.219Z,1.20
2022-09-17T09:53:47.683Z,2.00
2022-09-17T09:58:49.901Z,1.13
2022-09-17T10:03:54.214Z,1.30
2022-09-17T10:08:58.594Z,1.27
2022-09-17T10:14:19.482Z,1.40
2022-09-17T10:19:26.033Z,1.03
2022-09-17T10:24:31.338Z,1.20
2022-09-17T10:29:34.340Z,1.20
2022-09-17T10:34:36.591Z,1.20
2022-09-17T10:39:46.832Z,1.03
2022-09-17T10:44:56.863Z,1.17
2022-09-17T10:50:17.694Z,1.20
2022-09-17T10:55:33.675Z,1.27
2022-09-17T11:00:45.257Z,1.17
2022-09-17T11:05:59.778Z,1.13
2022-09-17T11:11:13.802Z,1.10
2022-09-17T11:16:33.601Z,1.10
2022-09-17T11:21:41.903Z,1.10
2022-09-17T11:26:58.912Z,1.20
2022-09-17T11:32:30.078Z,1.17
2022-09-17T11:37:38.230Z,1.00
2022-09-17T11:42:48.105Z,1.30
2022-09-17T11:48:05.970Z,1.43
2022-09-17T11:53:23.707Z,1.30
2022-09-17T11:58:28.854Z,1.10
2022-09-17T12:03:37.926Z,1.10
2022-09-17T12:08:54.793Z,1.30
2022-09-17T12:14:18.644Z,1.40
2022-09-17T12:19:37.081Z,1.43
2022-09-17T12:24:39.407Z,2.20
2022-09-17T12:29:44.616Z,1.47
2022-09-17T12:35:08.395Z,1.60
2022-09-17T12:40:19.586Z,1.93
2022-09-17T12:45:24.972Z,1.43
2022-09-17T12:50:52.209Z,1.37
2022-09-17T12:56:00.331Z,1.50
2022-09-17T13:01:43.077Z,1.10
2022-09-17T13:07:10.834Z,1.70
2022-09-17T13:12:22.018Z,1.30
2022-09-17T13:17:41.002Z,1.20
2022-09-17T13:22:50.370Z,1.55
2022-09-17T13:28:07.918Z,2.33
2022-09-17T13:33:11.404Z,3.13
2022-09-17T13:38:13.764Z,4.67
2022-09-17T13:43:18.437Z,2.47
2022-09-17T13:48:22.484Z,2.50
2022-09-17T13:53:27.348Z,1.80
2022-09-17T13:58:31.774Z,1.70
2022-09-17T14:03:40.763Z,1.90
2022-09-17T14:08:48.289Z,2.37
2022-09-17T14:14:03.228Z,1.90
2022-09-17T14:19:23.771Z,1.90
2022-09-17T14:24:37.015Z,2.43
2022-09-17T14:29:51.337Z,1.87
2022-09-17T14:34:53.568Z,1.43
2022-09-17T14:39:56.145Z,1.23
2022-09-17T14:45:21.549Z,1.07
2022-09-17T14:50:26.054Z,1.20
2022-09-17T14:55:31.575Z,1.70
2022-09-17T15:00:38.839Z,1.20
2022-09-17T15:05:50.832Z,2.37
2022-09-17T15:11:06.175Z,3.20
2022-09-17T15:16:36.897Z,3.27
2022-09-17T15:21:41.806Z,3.80
2022-09-17T15:26:46.119Z,4.50
2022-09-17T15:31:48.417Z,3.63
2022-09-17T15:37:17.708Z,3.40
2022-09-17T15:42:20.815Z,2.70
2022-09-17T15:47:58.941Z,2.30
2022-09-17T15:53:10.341Z,2.67
2022-09-17T15:58:48.161Z,3.20
2022-09-17T16:04:01.135Z,2.80
2022-09-17T16:09:40.671Z,3.90
2022-09-17T16:14:47.667Z,7.60
2022-09-17T16:19:49.910Z,9.27
2022-09-17T16:24:53.148Z,7.37
2022-09-17T16:30:03.098Z,7.70
2022-09-17T16:35:06.412Z,7.13
2022-09-17T16:40:13.186Z,7.57
2022-09-17T16:45:16.140Z,5.50
2022-09-17T16:50:18.870Z,5.90
2022-09-17T16:55:24.704Z,5.83
2022-09-17T17:00:27.630Z,6.60
2022-09-17T17:05:30.101Z,6.67
2022-09-17T17:10:34.417Z,5.97
2022-09-17T17:15:36.571Z,7.03
2022-09-17T17:20:38.705Z,5.27
2022-09-17T17:25:41.591Z,4.70
2022-09-17T17:30:47.653Z,5.13
2022-09-17T17:35:49.873Z,4.93
2022-09-17T17:41:09.538Z,5.33
2022-09-17T17:46:12.311Z,5.03
2022-09-17T17:51:14.743Z,4.30
2022-09-17T17:56:23.421Z,4.77
2022-09-17T18:01:29.981Z,4.40
2022-09-17T18:06:32.330Z,3.97
2022-09-17T18:11:35.158Z,5.07
2022-09-17T18:16:38.862Z,4.03
2022-09-17T18:21:41.211Z,4.00
2022-09-17T18:26:43.378Z,3.47
2022-09-17T18:31:45.614Z,3.60
2022-09-17T18:36:51.201Z,3.80
2022-09-17T18:41:53.778Z,3.37
2022-09-17T18:47:00.805Z,4.37
2022-09-17T18:52:03.214Z,4.23
2022-09-17T18:57:05.758Z,4.13
2022-09-17T19:02:12.128Z,3.33
2022-09-17T19:07:14.539Z,3.27
2022-09-17T19:12:24.552Z,3.00
2022-09-17T19:17:26.770Z,4.15
2022-09-17T19:22:29.847Z,3.20
2022-09-17T19:27:34.314Z,3.17
2022-09-17T19:32:43.111Z,3.43
2022-09-17T19:37:47.833Z,2.97
2022-09-17T19:42:54.324Z,2.87
2022-09-17T19:48:01.837Z,2.80
2022-09-17T19:53:04.174Z,3.47
2022-09-17T19:58:06.633Z,2.70
2022-09-17T20:03:11.888Z,3.20
2022-09-17T20:08:14.140Z,3.00
2022-09-17T20:13:19.582Z,3.40
2022-09-17T20:18:24.421Z,3.70
2022-09-17T20:23:31.961Z,3.00
2022-09-17T20:28:36.927Z,2.43
2022-09-17T20:33:42.109Z,2.93
2022-09-17T20:44:10.052Z,3.23
2022-09-17T20:49:12.376Z,3.67
2022-09-17T20:54:14.849Z,3.33
2022-09-17T20:59:21.721Z,3.20
2022-09-17T21:04:26.066Z,3.53
2022-09-17T21:09:28.222Z,3.63
2022-09-17T21:14:30.687Z,3.30
2022-09-17T21:19:32.888Z,3.87
2022-09-17T21:24:35.016Z,2.73
2022-09-17T21:29:37.138Z,3.87
2022-09-17T21:34:39.309Z,3.20
2022-09-17T21:39:41.507Z,3.67
2022-09-17T21:44:43.930Z,3.43
2022-09-17T21:49:46.075Z,5.43
2022-09-17T21:54:48.211Z,3.40
2022-09-17T21:59:50.366Z,3.40
2022-09-17T22:04:52.521Z,3.60
2022-09-17T22:09:54.661Z,3.93
2022-09-17T22:14:56.772Z,3.93
2022-09-17T22:19:58.899Z,3.97
2022-09-17T22:25:01.006Z,4.03
2022-09-17T22:30:03.407Z,3.87
2022-09-17T22:35:08.229Z,4.60
2022-09-17T22:40:10.717Z,5.77
2022-09-17T22:45:12.892Z,4.17
2022-09-17T22:50:15.044Z,3.73
2022-09-17T22:55:17.227Z,4.53
2022-09-17T23:00:19.922Z,4.60
2022-09-17T23:05:22.052Z,4.30
2022-09-17T23:10:24.166Z,4.57
2022-09-17T23:15:27.843Z,4.60
2022-09-17T23:20:30.056Z,4.27
2022-09-17T23:25:32.827Z,4.30
2022-09-17T23:30:36.116Z,3.93
2022-09-17T23:35:38.278Z,4.43
2022-09-17T23:40:41.379Z,3.90
2022-09-17T23:45:43.514Z,4.27
2022-09-17T23:50:45.597Z,4.77
2022-09-17T23:55:48.648Z,4.63
